A. Olaes, Philippines

1:32 AM +08 on 五月 23, 2017 (GMT +0800)
Alabang | | Change Station

高度 66 ft 14.44 °N, 121.04 °E | Updated 2 seconds ago

だいたい曇
だいたい曇
85.6 °F
体感気温 104 °F
0.0
風 変数 風 から 南南東
Gusts 0.0 Mph

今日
高い -- | 低 -- °F
--% 降水確率
昨日
高い -- | 低 -- °F
Precip. -- インチ
気圧 29.80 インチ
視程 6.2 マイル
やや曇 2300 ft
だいたい曇 10000 ft
体感気温(暑さ) 104 °F
露点温度 83 °F
湿度 91%
降水 0.00 インチ
積雪深 利用不可。
5:27 AM 6:18 PM
二十六夜, 14% visible
METAR RPLL 221700Z 13003KT 070V200 9999 SCT023 BKN100 29/27 Q1009 NOSIG RMK A2980
気圧 29.80 インチ
視程 6.2 マイル
やや曇 2300 ft
だいたい曇 10000 ft
体感気温(暑さ) 104 °F
露点温度 83 °F
湿度 91%
降水 0.00 インチ
積雪深 利用不可。
5:27 AM 6:18 PM
二十六夜, 14% visible
METAR RPLL 221700Z 13003KT 070V200 9999 SCT023 BKN100 29/27 Q1009 NOSIG RMK A2980

Get Severe Weather Alerts

Thanks for signing up!

Be on the lookout for a verification email in your inbox.

You'll start receiving the daily forecast at 8 AM.

×

10-Day Weather Forecast

No radar image for this location.
×

Almanac

天文

May. 23, 2017 入り
実時間
常用薄明
航海薄明
天文薄明
可視光の長さ
可照時間
Tomorrow will be .
, % of the Moon is Illuminated

今日の極値

Country Highs Country Lows

Community

Category 6

Welcome to Category 6. This is the collective home for Weather Underground's featured writeups by Dr. Jeff Masters (right), Bob Henson (left), Chris Burt, and other regular contributors.

Nearby

空気品質

  空気品質 大気質指数 汚染物質
Not available.

積雪深

Station Depth 高度

地震活動

Distance Mag. Time & Date
Minimum magnitude displayed is 2.5.

沿岸の水温

地名 気温

Stations

最寄りの気象観測所

観測所位置 温度 体感気温(寒さ) 露点温度 湿度 Precip. 高度 更新日時 タイプする